createdAt,value
2022-12-18T00:00:05.027Z,-1.21
2022-12-18T00:01:05.268Z,-1.21
2022-12-18T00:02:05.114Z,-1.23
2022-12-18T00:03:05.344Z,-1.21
2022-12-18T00:04:05.105Z,-1.24
2022-12-18T00:05:05.223Z,-1.18
2022-12-18T00:06:05.111Z,-1.19
2022-12-18T00:07:05.208Z,-1.23
2022-12-18T00:08:04.458Z,-1.29
2022-12-18T00:09:05.159Z,-1.31
2022-12-18T00:10:05.068Z,-1.39
2022-12-18T00:11:07.014Z,-1.39
2022-12-18T00:13:08.308Z,-1.39
2022-12-18T00:14:05.019Z,-1.39
2022-12-18T00:15:04.909Z,-1.33
2022-12-18T00:16:05.044Z,-1.34
2022-12-18T00:17:05.078Z,-1.31
2022-12-18T00:18:05.059Z,-1.31
2022-12-18T00:19:04.928Z,-1.27
2022-12-18T00:20:05.164Z,-1.29
2022-12-18T00:21:04.887Z,-1.26
2022-12-18T00:22:04.949Z,-1.24
2022-12-18T00:23:04.898Z,-1.19
2022-12-18T00:24:05.157Z,-1.19
2022-12-18T00:25:04.957Z,-1.18
2022-12-18T00:26:04.688Z,-1.16
2022-12-18T00:27:04.918Z,-1.16
2022-12-18T00:28:04.733Z,-1.13
2022-12-18T00:29:05.640Z,-1.13
2022-12-18T00:30:04.927Z,-1.12
2022-12-18T00:31:05.100Z,-1.12
2022-12-18T00:32:04.811Z,-1.13
2022-12-18T00:33:04.928Z,-1.09
2022-12-18T00:34:04.737Z,-1.09
2022-12-18T00:35:04.888Z,-1.09
2022-12-18T00:36:04.687Z,-1.16
2022-12-18T00:37:04.878Z,-1.18
2022-12-18T00:38:04.688Z,-1.15
2022-12-18T00:39:04.838Z,-1.16
2022-12-18T00:40:04.808Z,-1.13
2022-12-18T00:41:04.678Z,-1.06
2022-12-18T00:42:04.887Z,-1.05
2022-12-18T00:43:04.589Z,-1.03
2022-12-18T00:44:04.698Z,-0.98
2022-12-18T00:45:10.661Z,-0.93
2022-12-18T00:46:04.714Z,-1.09
2022-12-18T00:47:04.647Z,-1.11
2022-12-18T00:48:04.819Z,-1.05
2022-12-18T00:49:04.538Z,-1.00
2022-12-18T00:50:04.649Z,-0.97
2022-12-18T00:51:04.577Z,-0.94
2022-12-18T00:52:04.697Z,-0.94
2022-12-18T00:53:04.599Z,-0.97
2022-12-18T00:54:04.627Z,-0.95
2022-12-18T00:55:06.488Z,-0.94
2022-12-18T00:56:04.619Z,-0.98
2022-12-18T00:57:04.619Z,-0.91
2022-12-18T00:58:04.460Z,-0.90
2022-12-18T00:59:04.569Z,-0.95
2022-12-18T01:00:04.559Z,-0.93
2022-12-18T01:01:04.690Z,-0.84
2022-12-18T01:02:04.519Z,-0.84
2022-12-18T01:03:04.590Z,-0.78
2022-12-18T01:04:04.438Z,-0.71
2022-12-18T01:05:04.637Z,-0.68
2022-12-18T01:06:04.599Z,-0.51
2022-12-18T01:07:04.509Z,-0.40
2022-12-18T01:08:04.428Z,-0.30
2022-12-18T01:09:04.517Z,-0.19
2022-12-18T01:10:04.408Z,-0.17
2022-12-18T01:11:04.567Z,-0.35
2022-12-18T01:12:04.472Z,-0.37
2022-12-18T01:13:04.518Z,-0.42
2022-12-18T01:14:04.599Z,-0.43
2022-12-18T01:15:04.267Z,-0.55
2022-12-18T01:16:04.518Z,-0.57
2022-12-18T01:17:04.358Z,-0.57
2022-12-18T01:18:04.447Z,-0.58
2022-12-18T01:19:04.258Z,-0.63
2022-12-18T01:20:04.479Z,-0.66
2022-12-18T01:21:04.248Z,-0.78
2022-12-18T01:22:04.367Z,-0.78
2022-12-18T01:23:04.398Z,-0.81
2022-12-18T01:24:04.338Z,-0.79
2022-12-18T01:25:04.318Z,-0.78
2022-12-18T01:26:04.439Z,-0.84
2022-12-18T01:27:04.320Z,-0.94
2022-12-18T01:28:04.157Z,-0.98
2022-12-18T01:29:04.267Z,-1.03
2022-12-18T01:30:04.130Z,-1.05
2022-12-18T01:31:04.288Z,-1.03
2022-12-18T01:32:04.117Z,-1.00
2022-12-18T01:33:04.367Z,-0.98
2022-12-18T01:34:04.322Z,-0.98
2022-12-18T01:35:04.177Z,-0.97
2022-12-18T01:36:04.317Z,-0.93
2022-12-18T01:37:04.268Z,-1.03
2022-12-18T01:38:04.119Z,-1.18
2022-12-18T01:39:04.178Z,-1.26
2022-12-18T01:40:04.385Z,-1.31
2022-12-18T01:41:04.328Z,-1.45
2022-12-18T01:42:04.169Z,-1.42
2022-12-18T01:43:04.000Z,-1.54
2022-12-18T01:44:04.078Z,-1.62
2022-12-18T01:45:03.970Z,-1.57
2022-12-18T01:46:04.261Z,-1.52
2022-12-18T01:47:04.078Z,-1.36
2022-12-18T01:48:04.258Z,-1.23
2022-12-18T01:49:03.948Z,-1.18
2022-12-18T01:50:04.140Z,-1.21
2022-12-18T01:51:03.928Z,-1.16
2022-12-18T01:52:04.068Z,-1.15
2022-12-18T01:53:03.998Z,-1.09
2022-12-18T01:54:04.148Z,-1.11
2022-12-18T01:55:03.898Z,-1.18
2022-12-18T01:56:04.117Z,-1.21
2022-12-18T01:57:03.928Z,-1.21
2022-12-18T01:58:04.048Z,-1.26
2022-12-18T01:59:03.918Z,-1.24
2022-12-18T02:00:03.797Z,-1.27
2022-12-18T02:01:04.053Z,-1.30
2022-12-18T02:02:03.939Z,-1.33
2022-12-18T02:03:04.020Z,-1.37
2022-12-18T02:04:03.789Z,-1.34
2022-12-18T02:05:03.937Z,-1.49
2022-12-18T02:06:03.949Z,-1.66
2022-12-18T02:07:04.478Z,-1.77
2022-12-18T02:08:03.868Z,-2.01
2022-12-18T02:09:03.879Z,-2.04
2022-12-18T02:10:03.797Z,-2.12
2022-12-18T02:11:03.839Z,-2.29
2022-12-18T02:12:03.787Z,-2.39
2022-12-18T02:13:03.829Z,-2.33
2022-12-18T02:14:03.828Z,-2.35
2022-12-18T02:15:03.579Z,-2.29
2022-12-18T02:16:03.736Z,-2.36
2022-12-18T02:17:03.687Z,-2.38
2022-12-18T02:18:03.800Z,-2.29
2022-12-18T02:19:03.679Z,-2.30
2022-12-18T02:20:03.834Z,-2.24
2022-12-18T02:21:03.700Z,-2.22
2022-12-18T02:22:03.929Z,-2.36
2022-12-18T02:23:03.578Z,-2.35
2022-12-18T02:24:03.718Z,-2.27
2022-12-18T02:25:03.678Z,-2.09
2022-12-18T02:26:03.788Z,-1.88
2022-12-18T02:27:03.827Z,-1.84
2022-12-18T02:28:03.738Z,-1.78
2022-12-18T02:29:03.629Z,-1.77
2022-12-18T02:30:03.489Z,-1.73
2022-12-18T02:31:03.727Z,-1.90
2022-12-18T02:32:03.639Z,-1.96
2022-12-18T02:33:03.568Z,-1.98
2022-12-18T02:34:03.498Z,-1.99
2022-12-18T02:35:03.598Z,-1.96
2022-12-18T02:36:03.620Z,-1.98
2022-12-18T02:37:03.778Z,-1.93
2022-12-18T02:38:03.638Z,-1.94
2022-12-18T02:39:03.569Z,-1.93
2022-12-18T02:40:03.567Z,-1.98
2022-12-18T02:41:03.609Z,-2.02
2022-12-18T02:42:03.528Z,-2.05
2022-12-18T02:43:03.568Z,-2.09
2022-12-18T02:44:03.447Z,-2.06
2022-12-18T02:45:03.498Z,-2.04
2022-12-18T02:46:03.605Z,-2.05
2022-12-18T02:47:03.486Z,-2.09
2022-12-18T02:48:03.457Z,-2.20
2022-12-18T02:49:03.357Z,-2.26
2022-12-18T02:50:03.509Z,-2.29
2022-12-18T02:51:03.256Z,-2.42
2022-12-18T02:52:03.438Z,-2.42
2022-12-18T02:53:03.377Z,-2.46
2022-12-18T02:54:03.407Z,-2.38
2022-12-18T02:55:03.389Z,-2.39
2022-12-18T02:56:03.429Z,-2.38
2022-12-18T02:57:03.417Z,-2.38
2022-12-18T02:58:03.450Z,-2.36
2022-12-18T02:59:03.338Z,-2.43
2022-12-18T03:00:03.528Z,-2.45
2022-12-18T03:01:03.356Z,-2.39
2022-12-18T03:02:03.518Z,-2.38
2022-12-18T03:03:03.549Z,-2.39
2022-12-18T03:04:03.139Z,-2.39
2022-12-18T03:05:03.249Z,-2.59
2022-12-18T03:06:03.188Z,-2.60
2022-12-18T03:07:03.478Z,-2.59
2022-12-18T03:08:03.399Z,-2.60
2022-12-18T03:09:03.462Z,-2.62
2022-12-18T03:10:03.109Z,-2.62
2022-12-18T03:11:03.229Z,-2.63
2022-12-18T03:12:03.178Z,-2.66
2022-12-18T03:13:03.337Z,-2.74
2022-12-18T03:14:03.069Z,-2.81
2022-12-18T03:15:03.168Z,-2.82
2022-12-18T03:16:03.166Z,-2.85
2022-12-18T03:17:02.991Z,-2.85
2022-12-18T03:18:03.307Z,-2.92
2022-12-18T03:19:03.128Z,-2.92
2022-12-18T03:20:03.240Z,-2.96
2022-12-18T03:21:03.047Z,-3.03
2022-12-18T03:22:03.151Z,-3.03
2022-12-18T03:23:03.148Z,-3.03
2022-12-18T03:24:03.107Z,-3.06
2022-12-18T03:25:02.948Z,-3.09
2022-12-18T03:26:07.335Z,-3.06
2022-12-18T03:27:02.968Z,-3.13
2022-12-18T03:28:03.109Z,-3.14
2022-12-18T03:29:03.008Z,-3.18
2022-12-18T03:30:03.037Z,-3.17
2022-12-18T03:31:02.974Z,-3.23
2022-12-18T03:32:02.969Z,-3.24
2022-12-18T03:33:03.049Z,-3.38
2022-12-18T03:34:02.818Z,-3.39
2022-12-18T03:35:02.968Z,-3.37
2022-12-18T03:36:02.818Z,-3.34
2022-12-18T03:37:03.048Z,-3.37
2022-12-18T03:38:02.974Z,-3.47
2022-12-18T03:39:03.079Z,-3.57
2022-12-18T03:40:02.904Z,-3.63
2022-12-18T03:41:02.906Z,-3.60
2022-12-18T03:42:02.768Z,-3.57
2022-12-18T03:43:03.027Z,-3.53
2022-12-18T03:44:02.868Z,-3.52
2022-12-18T03:45:02.888Z,-3.47
2022-12-18T03:46:02.889Z,-3.53
2022-12-18T03:47:02.858Z,-3.52
2022-12-18T03:48:02.909Z,-3.50
2022-12-18T03:49:02.728Z,-3.47
2022-12-18T03:50:06.082Z,-3.47
2022-12-18T03:51:02.601Z,-3.52
2022-12-18T03:52:02.957Z,-3.52
2022-12-18T03:53:02.677Z,-3.53
2022-12-18T03:54:02.867Z,-3.49
2022-12-18T03:55:02.750Z,-3.49
2022-12-18T03:56:02.757Z,-3.44
2022-12-18T03:57:02.673Z,-3.49
2022-12-18T03:58:02.747Z,-3.50
2022-12-18T03:59:02.837Z,-3.49
2022-12-18T04:00:02.686Z,-3.53
2022-12-18T04:01:02.608Z,-3.55
2022-12-18T04:02:02.964Z,-3.59
2022-12-18T04:03:02.820Z,-3.59
2022-12-18T04:04:02.607Z,-3.62
2022-12-18T04:05:02.709Z,-3.63
2022-12-18T04:06:02.529Z,-3.67
2022-12-18T04:07:02.697Z,-3.65
2022-12-18T04:08:02.618Z,-3.68
2022-12-18T04:09:02.702Z,-3.74
2022-12-18T04:10:02.627Z,-3.74
2022-12-18T04:11:02.627Z,-3.75
2022-12-18T04:12:02.488Z,-3.75
2022-12-18T04:13:02.607Z,-3.78
2022-12-18T04:14:06.942Z,-3.78
2022-12-18T04:15:02.822Z,-3.79
2022-12-18T04:16:02.604Z,-3.81
2022-12-18T04:17:02.637Z,-3.85
2022-12-18T04:18:02.489Z,-3.86
2022-12-18T04:19:02.617Z,-3.86
2022-12-18T04:20:02.510Z,-3.90
2022-12-18T04:21:02.452Z,-3.92
2022-12-18T04:22:02.547Z,-3.90
2022-12-18T04:23:02.550Z,-3.93
2022-12-18T04:24:02.510Z,-3.95
2022-12-18T04:25:02.517Z,-3.97
2022-12-18T04:26:02.510Z,-3.97
2022-12-18T04:27:02.368Z,-3.97
2022-12-18T04:28:02.469Z,-3.97
2022-12-18T04:29:02.359Z,-4.00
2022-12-18T04:30:02.488Z,-3.99
2022-12-18T04:31:02.475Z,-3.99
2022-12-18T04:32:02.403Z,-4.00
2022-12-18T04:33:02.389Z,-4.04
2022-12-18T04:34:02.379Z,-4.04
2022-12-18T04:35:02.370Z,-4.07
2022-12-18T04:36:01.646Z,-4.07
2022-12-18T04:37:02.317Z,-4.08
2022-12-18T04:38:02.188Z,-4.11
2022-12-18T04:39:02.318Z,-4.11
2022-12-18T04:40:02.244Z,-4.07
2022-12-18T04:41:02.318Z,-4.11
2022-12-18T04:42:02.239Z,-4.17
2022-12-18T04:43:02.504Z,-4.15
2022-12-18T04:44:02.187Z,-4.13
2022-12-18T04:45:02.317Z,-4.11
2022-12-18T04:46:02.350Z,-4.15
2022-12-18T04:47:02.378Z,-4.17
2022-12-18T04:48:02.188Z,-4.23
2022-12-18T04:49:02.268Z,-4.23
2022-12-18T04:50:02.198Z,-4.23
2022-12-18T04:51:02.198Z,-4.23
2022-12-18T04:52:02.398Z,-4.25
2022-12-18T04:53:01.979Z,-4.25
2022-12-18T04:54:02.278Z,-4.23
2022-12-18T04:55:01.998Z,-4.28
2022-12-18T04:56:02.211Z,-4.29
2022-12-18T04:57:02.073Z,-4.32
2022-12-18T04:58:02.297Z,-4.31
2022-12-18T04:59:02.037Z,-4.33
2022-12-18T05:00:02.217Z,-4.33
2022-12-18T05:01:01.967Z,-4.36
2022-12-18T05:02:02.347Z,-4.35
2022-12-18T05:03:02.088Z,-4.38
2022-12-18T05:04:02.263Z,-4.39
2022-12-18T05:05:01.999Z,-4.42
2022-12-18T05:06:02.099Z,-4.43
2022-12-18T05:07:02.187Z,-4.44
2022-12-18T05:08:02.116Z,-4.43
2022-12-18T05:09:02.077Z,-4.42
2022-12-18T05:10:02.078Z,-4.50
2022-12-18T05:11:02.088Z,-4.50
2022-12-18T05:12:01.957Z,-4.44
2022-12-18T05:13:02.052Z,-4.43
2022-12-18T05:14:01.890Z,-4.44
2022-12-18T05:15:02.060Z,-4.44
2022-12-18T05:16:01.990Z,-4.47
2022-12-18T05:17:02.048Z,-4.49
2022-12-18T05:18:01.943Z,-4.49
2022-12-18T05:19:01.962Z,-4.47
2022-12-18T05:20:01.838Z,-4.50
2022-12-18T05:21:02.099Z,-4.52
2022-12-18T05:22:01.928Z,-4.52
2022-12-18T05:23:01.918Z,-4.54
2022-12-18T05:24:01.950Z,-4.57
2022-12-18T05:25:02.019Z,-4.62
2022-12-18T05:26:01.858Z,-4.67
2022-12-18T05:27:01.809Z,-4.67
2022-12-18T05:28:01.869Z,-4.83
2022-12-18T05:29:01.831Z,-4.88
2022-12-18T05:30:01.918Z,-4.97
2022-12-18T05:31:01.908Z,-5.03
2022-12-18T05:32:01.988Z,-5.03
2022-12-18T05:33:01.781Z,-5.04
2022-12-18T05:34:02.028Z,-5.06
2022-12-18T05:35:01.898Z,-5.06
2022-12-18T05:36:01.992Z,-5.11
2022-12-18T05:37:01.799Z,-5.10
2022-12-18T05:38:01.790Z,-5.13
2022-12-18T05:39:01.827Z,-5.11
2022-12-18T05:40:01.939Z,-5.13
2022-12-18T05:41:01.839Z,-5.20
2022-12-18T05:42:01.881Z,-5.28
2022-12-18T05:43:01.658Z,-5.28
2022-12-18T05:44:01.516Z,-5.26
2022-12-18T05:45:01.802Z,-5.26
2022-12-18T05:46:01.618Z,-5.29
2022-12-18T05:47:01.774Z,-5.33
2022-12-18T05:48:01.578Z,-5.30
2022-12-18T05:49:01.868Z,-5.28
2022-12-18T05:50:01.598Z,-5.25
2022-12-18T05:51:01.820Z,-5.23
2022-12-18T05:52:01.647Z,-5.26
2022-12-18T05:53:01.683Z,-5.23
2022-12-18T05:54:01.627Z,-5.26
2022-12-18T05:55:01.640Z,-5.29
2022-12-18T05:56:01.657Z,-5.30
2022-12-18T05:57:01.747Z,-5.30
2022-12-18T05:58:01.639Z,-5.23
2022-12-18T05:59:01.537Z,-5.23
2022-12-18T06:00:01.581Z,-5.22
2022-12-18T06:01:01.338Z,-5.20
2022-12-18T06:02:01.723Z,-5.23
2022-12-18T06:03:01.601Z,-5.26
2022-12-18T06:04:01.655Z,-5.28
2022-12-18T06:05:01.489Z,-5.23
2022-12-18T06:06:01.608Z,-5.32
2022-12-18T06:07:01.351Z,-5.33
2022-12-18T06:08:01.548Z,-5.36
2022-12-18T06:09:01.349Z,-5.41
2022-12-18T06:10:01.598Z,-5.39
2022-12-18T06:11:01.356Z,-5.32
2022-12-18T06:12:01.648Z,-5.33
2022-12-18T06:13:01.369Z,-5.29
2022-12-18T06:14:01.608Z,-5.29
2022-12-18T06:15:01.499Z,-5.28
2022-12-18T06:16:01.458Z,-5.29
2022-12-18T06:17:01.342Z,-5.25
2022-12-18T06:18:01.187Z,-5.26
2022-12-18T06:19:01.559Z,-5.25
2022-12-18T06:20:01.281Z,-5.26
2022-12-18T06:21:01.417Z,-5.26
2022-12-18T06:22:01.347Z,-5.28
2022-12-18T06:23:01.456Z,-5.26
2022-12-18T06:24:01.373Z,-5.29
2022-12-18T06:25:01.496Z,-5.32
2022-12-18T06:26:01.328Z,-5.33
2022-12-18T06:27:01.477Z,-5.33
2022-12-18T06:28:01.357Z,-5.40
2022-12-18T06:29:01.288Z,-5.39
2022-12-18T06:30:01.208Z,-5.39
2022-12-18T06:31:01.307Z,-5.37
2022-12-18T06:32:01.341Z,-5.37
2022-12-18T06:33:01.269Z,-5.39
2022-12-18T06:34:01.189Z,-5.37
2022-12-18T06:35:01.120Z,-5.37
2022-12-18T06:36:01.405Z,-5.36
2022-12-18T06:37:01.246Z,-5.36
2022-12-18T06:38:01.207Z,-5.39
2022-12-18T06:39:01.127Z,-5.39
2022-12-18T06:40:01.187Z,-5.37
2022-12-18T06:41:01.137Z,-5.37
2022-12-18T06:42:01.140Z,-5.30
2022-12-18T06:43:01.277Z,-5.33
2022-12-18T06:44:01.258Z,-5.49
2022-12-18T06:45:01.001Z,-5.64
2022-12-18T06:46:01.331Z,-5.61
2022-12-18T06:47:01.198Z,-5.61
2022-12-18T06:48:01.150Z,-5.65
2022-12-18T06:49:01.011Z,-5.64
2022-12-18T06:50:00.898Z,-5.61
2022-12-18T06:51:01.038Z,-5.67
2022-12-18T06:52:00.977Z,-5.82
2022-12-18T06:53:01.248Z,-5.83
2022-12-18T06:54:00.858Z,-5.80
2022-12-18T06:55:01.022Z,-5.73
2022-12-18T06:56:05.093Z,-5.61
2022-12-18T06:57:01.048Z,-5.51
2022-12-18T06:58:01.008Z,-5.37
2022-12-18T06:59:00.967Z,-5.40
2022-12-18T07:00:00.946Z,-5.41
2022-12-18T07:01:01.191Z,-5.50
2022-12-18T07:02:01.039Z,-5.54
2022-12-18T07:03:00.988Z,-5.51
2022-12-18T07:04:01.069Z,-5.51
2022-12-18T07:05:02.761Z,-5.49
2022-12-18T07:06:00.908Z,-5.43
2022-12-18T07:07:00.718Z,-5.44
2022-12-18T07:08:00.847Z,-5.46
2022-12-18T07:09:00.868Z,-5.41
2022-12-18T07:10:00.998Z,-5.41
2022-12-18T07:11:00.727Z,-5.43
2022-12-18T07:12:00.858Z,-5.47
2022-12-18T07:13:00.709Z,-5.41
2022-12-18T07:14:00.918Z,-5.30
2022-12-18T07:15:00.777Z,-5.36
2022-12-18T07:16:01.061Z,-5.54
2022-12-18T07:17:00.915Z,-5.78
2022-12-18T07:18:00.858Z,-5.83
2022-12-18T07:19:00.780Z,-5.83
2022-12-18T07:20:00.966Z,-5.80
2022-12-18T07:21:00.908Z,-5.75
2022-12-18T07:22:00.869Z,-5.64
2022-12-18T07:23:00.823Z,-5.55
2022-12-18T07:24:00.564Z,-5.51
2022-12-18T07:25:00.848Z,-5.46
2022-12-18T07:26:00.507Z,-5.46
2022-12-18T07:27:00.787Z,-5.39
2022-12-18T07:28:00.567Z,-5.41
2022-12-18T07:29:00.762Z,-5.37
2022-12-18T07:30:00.648Z,-5.36
2022-12-18T07:31:00.768Z,-5.32
2022-12-18T07:32:00.597Z,-5.28
2022-12-18T07:33:00.640Z,-5.22
2022-12-18T07:34:00.607Z,-5.16
2022-12-18T07:35:00.807Z,-5.09
2022-12-18T07:36:00.668Z,-5.00
2022-12-18T07:37:00.676Z,-4.93
2022-12-18T07:38:00.521Z,-4.85
2022-12-18T07:39:00.637Z,-4.79
2022-12-18T07:40:01.618Z,-4.75
2022-12-18T07:41:00.480Z,-4.71
2022-12-18T07:42:00.567Z,-4.74
2022-12-18T07:43:00.408Z,-4.74
2022-12-18T07:44:00.726Z,-4.67
2022-12-18T07:45:00.366Z,-4.70
2022-12-18T07:46:00.658Z,-4.68
2022-12-18T07:47:00.478Z,-4.62
2022-12-18T07:48:00.547Z,-4.56
2022-12-18T07:49:00.527Z,-4.53
2022-12-18T07:50:00.499Z,-4.44
2022-12-18T07:51:00.497Z,-4.36
2022-12-18T07:52:00.587Z,-4.31
2022-12-18T07:53:00.428Z,-4.23
2022-12-18T07:54:00.507Z,-4.13
2022-12-18T07:54:59.648Z,-4.08
2022-12-18T07:56:26.086Z,-4.04
2022-12-18T07:57:00.429Z,-3.90
2022-12-18T07:58:01.338Z,-3.71
2022-12-18T07:59:00.694Z,-3.57
2022-12-18T08:00:00.268Z,-3.50
2022-12-18T08:01:00.569Z,-3.23
2022-12-18T08:02:00.562Z,-2.93
2022-12-18T08:03:00.626Z,-2.74
2022-12-18T08:04:00.227Z,-2.63
2022-12-18T08:05:00.372Z,-2.59
2022-12-18T08:06:00.266Z,-2.87
2022-12-18T08:07:00.438Z,-2.93
2022-12-18T08:07:59.568Z,-2.81
2022-12-18T08:09:00.347Z,-2.72
2022-12-18T08:10:00.238Z,-2.74
2022-12-18T08:11:00.258Z,-2.78
2022-12-18T08:12:00.269Z,-2.74
2022-12-18T08:13:04.643Z,-2.67
2022-12-18T08:14:00.258Z,-2.60
2022-12-18T08:15:00.049Z,-2.60
2022-12-18T08:15:59.947Z,-2.54
2022-12-18T08:17:00.142Z,-2.57
2022-12-18T08:18:00.488Z,-2.48
2022-12-18T08:19:00.073Z,-2.36
2022-12-18T08:20:00.367Z,-2.14
2022-12-18T08:21:00.079Z,-1.87
2022-12-18T08:22:00.219Z,-1.80
2022-12-18T08:23:00.147Z,-1.65
2022-12-18T08:24:00.262Z,-1.51
2022-12-18T08:25:00.135Z,-1.21
2022-12-18T08:26:00.218Z,-0.91
2022-12-18T08:27:28.320Z,-0.60
2022-12-18T08:28:00.749Z,-0.15
2022-12-18T08:29:00.127Z,0.12
2022-12-18T08:29:59.952Z,0.01
2022-12-18T08:31:00.201Z,0.15
2022-12-18T08:32:00.136Z,0.15
2022-12-18T08:33:00.148Z,0.32
2022-12-18T08:34:00.103Z,0.18
2022-12-18T08:35:00.112Z,0.12
2022-12-18T08:35:59.953Z,0.21
2022-12-18T08:37:00.027Z,0.37
2022-12-18T08:37:59.878Z,0.32
2022-12-18T08:39:00.148Z,0.17
2022-12-18T08:40:00.188Z,0.37
2022-12-18T08:41:00.128Z,0.40
2022-12-18T08:42:00.071Z,0.90
2022-12-18T08:43:00.097Z,1.55
2022-12-18T08:43:59.988Z,1.95
2022-12-18T08:44:59.951Z,2.39
2022-12-18T08:46:00.055Z,2.60
2022-12-18T08:46:59.868Z,2.71
2022-12-18T08:47:59.988Z,3.19
2022-12-18T08:48:59.838Z,3.47
2022-12-18T08:49:59.996Z,3.70
2022-12-18T08:50:59.939Z,4.12
2022-12-18T08:52:00.709Z,4.35
2022-12-18T08:52:59.229Z,4.46
2022-12-18T08:53:59.919Z,4.63
2022-12-18T08:54:59.920Z,4.69
2022-12-18T08:55:59.978Z,4.19
2022-12-18T08:56:59.808Z,4.01
2022-12-18T08:57:59.948Z,4.00
2022-12-18T08:58:59.898Z,4.04
2022-12-18T08:59:59.906Z,4.19
2022-12-18T09:00:59.897Z,4.63
2022-12-18T09:01:59.757Z,4.85
2022-12-18T09:02:59.124Z,4.53
2022-12-18T09:03:59.597Z,4.49
2022-12-18T09:04:59.798Z,4.40
2022-12-18T09:05:59.741Z,4.18
2022-12-18T09:06:59.778Z,4.27
2022-12-18T09:07:59.659Z,4.31
2022-12-18T09:08:59.754Z,4.16
2022-12-18T09:09:59.633Z,3.90
2022-12-18T09:10:59.779Z,3.72
2022-12-18T09:11:59.660Z,3.24
2022-12-18T09:12:59.698Z,3.01
2022-12-18T09:13:59.587Z,3.35
2022-12-18T09:14:59.681Z,3.36
2022-12-18T09:15:59.630Z,3.01
2022-12-18T09:16:59.772Z,2.81
2022-12-18T09:17:59.668Z,2.53
2022-12-18T09:18:59.449Z,2.52
2022-12-18T09:19:59.609Z,2.70
2022-12-18T09:20:59.559Z,2.79
2022-12-18T09:21:59.619Z,2.94
2022-12-18T09:22:59.599Z,3.12
2022-12-18T09:23:59.588Z,3.04
2022-12-18T09:24:59.449Z,2.94
2022-12-18T09:25:59.619Z,2.52
2022-12-18T09:26:59.447Z,2.20
2022-12-18T09:27:58.808Z,2.06
2022-12-18T09:28:59.029Z,1.94
2022-12-18T09:29:59.660Z,1.59
2022-12-18T09:30:59.592Z,1.55
2022-12-18T09:31:59.548Z,1.66
2022-12-18T09:32:59.818Z,1.58
2022-12-18T09:33:59.409Z,1.47
2022-12-18T09:34:59.550Z,1.27
2022-12-18T09:36:00.369Z,1.18
2022-12-18T09:36:59.729Z,1.26
2022-12-18T09:37:58.680Z,1.23
2022-12-18T09:39:03.733Z,1.18
2022-12-18T09:39:59.231Z,1.10
2022-12-18T09:41:00.680Z,1.16
2022-12-18T09:41:59.308Z,0.88
2022-12-18T09:42:59.508Z,0.83
2022-12-18T09:43:59.318Z,0.39
2022-12-18T09:44:59.587Z,0.43
2022-12-18T09:45:59.413Z,0.28
2022-12-18T09:46:59.443Z,0.47
2022-12-18T09:47:59.299Z,0.25
2022-12-18T09:48:59.112Z,0.24
2022-12-18T09:49:59.369Z,0.24
2022-12-18T09:50:59.158Z,0.18
2022-12-18T09:51:59.267Z,0.15
2022-12-18T09:52:59.259Z,0.25
2022-12-18T09:53:59.366Z,0.45
2022-12-18T09:54:59.167Z,0.55
2022-12-18T09:55:59.277Z,0.61
2022-12-18T09:56:59.130Z,0.66
2022-12-18T09:57:58.461Z,0.50
2022-12-18T09:58:59.358Z,0.59
2022-12-18T09:59:59.291Z,0.39
2022-12-18T10:00:59.160Z,0.32
2022-12-18T10:01:59.335Z,0.55
2022-12-18T10:02:59.340Z,0.47
2022-12-18T10:03:59.045Z,0.04
2022-12-18T10:04:59.729Z,0.17
2022-12-18T10:05:59.228Z,0.32
2022-12-18T10:07:01.090Z,0.21
2022-12-18T10:07:59.309Z,0.27
2022-12-18T10:08:59.499Z,0.50
2022-12-18T10:09:59.346Z,0.66
2022-12-18T10:11:00.344Z,0.66
2022-12-18T10:11:59.139Z,0.39
2022-12-18T10:13:04.321Z,0.43
2022-12-18T10:13:59.046Z,0.58
2022-12-18T10:14:58.374Z,0.56
2022-12-18T10:15:58.993Z,0.53
2022-12-18T10:16:59.160Z,0.62
2022-12-18T10:17:58.927Z,0.79
2022-12-18T10:18:59.050Z,0.80
2022-12-18T10:19:58.958Z,0.84
2022-12-18T10:20:59.009Z,0.82
2022-12-18T10:21:59.108Z,0.82
2022-12-18T10:22:58.927Z,0.84
2022-12-18T10:23:58.946Z,0.83
2022-12-18T10:24:58.908Z,0.74
2022-12-18T10:25:58.971Z,0.82
2022-12-18T10:26:58.858Z,0.92
2022-12-18T10:27:59.607Z,1.09
2022-12-18T10:29:05.369Z,1.05
2022-12-18T10:29:59.091Z,1.12
2022-12-18T10:30:58.931Z,1.08
2022-12-18T10:31:58.867Z,1.00
2022-12-18T10:32:58.838Z,0.97
2022-12-18T10:33:59.050Z,0.65
2022-12-18T10:35:00.770Z,0.59
2022-12-18T10:35:58.828Z,0.39
2022-12-18T10:36:58.817Z,0.28
2022-12-18T10:37:58.788Z,0.35
2022-12-18T10:38:58.768Z,0.58
2022-12-18T10:39:59.857Z,0.72
2022-12-18T10:40:58.879Z,0.82
2022-12-18T10:41:58.818Z,0.91
2022-12-18T10:42:58.943Z,1.01
2022-12-18T10:43:58.646Z,0.98
2022-12-18T10:44:58.787Z,0.97
2022-12-18T10:45:58.747Z,0.80
2022-12-18T10:46:58.727Z,0.74
2022-12-18T10:47:59.786Z,0.74
2022-12-18T10:48:58.748Z,0.58
2022-12-18T10:49:58.688Z,0.24
2022-12-18T10:51:13.985Z,-0.11
2022-12-18T10:51:58.747Z,-0.35
2022-12-18T10:52:58.462Z,-0.39
2022-12-18T10:53:58.597Z,-0.61
2022-12-18T10:54:58.587Z,-0.94
2022-12-18T10:55:58.710Z,-0.75
2022-12-18T10:56:58.489Z,-0.42
2022-12-18T10:57:59.247Z,-0.22
2022-12-18T10:58:58.777Z,-0.06
2022-12-18T10:59:58.727Z,-0.15
2022-12-18T11:00:58.627Z,0.07
2022-12-18T11:01:58.841Z,0.33
2022-12-18T11:02:58.959Z,0.35
2022-12-18T11:04:02.051Z,0.32
2022-12-18T11:04:58.479Z,0.33
2022-12-18T11:05:58.347Z,0.45
2022-12-18T11:06:58.469Z,0.62
2022-12-18T11:07:58.467Z,0.53
2022-12-18T11:08:58.448Z,0.56
2022-12-18T11:09:58.369Z,0.50
2022-12-18T11:10:58.610Z,0.55
2022-12-18T11:11:58.349Z,0.59
2022-12-18T11:12:58.498Z,0.56
2022-12-18T11:13:58.657Z,0.37
2022-12-18T11:14:57.628Z,0.33
2022-12-18T11:15:58.345Z,0.25
2022-12-18T11:17:24.172Z,0.18
2022-12-18T11:17:59.099Z,0.09
2022-12-18T11:18:58.810Z,-0.18
2022-12-18T11:19:58.360Z,-0.18
2022-12-18T11:20:58.888Z,-0.15
2022-12-18T11:21:58.468Z,-0.19
2022-12-18T11:22:58.757Z,-0.12
2022-12-18T11:23:59.788Z,-0.01
2022-12-18T11:25:30.305Z,0.04
2022-12-18T11:25:59.218Z,-0.21
2022-12-18T11:27:00.011Z,-0.24
2022-12-18T11:27:58.945Z,-0.08
2022-12-18T11:28:58.207Z,0.12
2022-12-18T11:29:58.637Z,0.03
2022-12-18T11:30:58.398Z,0.10
2022-12-18T11:31:58.296Z,0.01
2022-12-18T11:32:58.440Z,-0.35
2022-12-18T11:34:27.555Z,-0.43
2022-12-18T11:34:59.315Z,-0.60
2022-12-18T11:35:58.440Z,-0.42
2022-12-18T11:36:58.504Z,-0.51
2022-12-18T11:37:58.320Z,-0.90
2022-12-18T11:38:58.241Z,-0.95
2022-12-18T11:39:58.019Z,-1.06
2022-12-18T11:40:58.771Z,-0.83
2022-12-18T11:41:59.495Z,-0.79
2022-12-18T11:42:58.140Z,-0.74
2022-12-18T11:43:58.000Z,-0.63
2022-12-18T11:44:58.170Z,-0.69
2022-12-18T11:45:58.089Z,-0.65
2022-12-18T11:46:58.304Z,-0.63
2022-12-18T11:47:58.249Z,-0.61
2022-12-18T11:48:58.629Z,-0.69
2022-12-18T11:49:57.971Z,-0.74
2022-12-18T11:50:58.191Z,-0.74
2022-12-18T11:51:58.351Z,-0.65
2022-12-18T11:53:01.600Z,-0.47
2022-12-18T11:53:58.528Z,-0.33
2022-12-18T11:54:57.809Z,-0.50
2022-12-18T11:55:58.020Z,-0.40
2022-12-18T11:56:57.939Z,-0.35
2022-12-18T11:57:58.129Z,-0.40
2022-12-18T11:58:57.931Z,-0.39
2022-12-18T11:59:57.969Z,-0.43
2022-12-18T12:00:57.191Z,-0.28
2022-12-18T12:01:58.149Z,-0.30
2022-12-18T12:02:57.944Z,-0.63
2022-12-18T12:04:00.395Z,-0.61
2022-12-18T12:04:58.424Z,-0.54
2022-12-18T12:05:58.384Z,-0.86
2022-12-18T12:07:02.889Z,-1.06
2022-12-18T12:07:58.782Z,-1.05
2022-12-18T12:08:58.144Z,-1.09
2022-12-18T12:09:59.403Z,-1.12
2022-12-18T12:10:58.961Z,-0.91
2022-12-18T12:11:58.105Z,-0.90
2022-12-18T12:12:58.243Z,-0.68
2022-12-18T12:13:58.082Z,-0.71
2022-12-18T12:14:58.282Z,-0.83
2022-12-18T12:15:59.247Z,-0.87
2022-12-18T12:16:58.084Z,-0.83
2022-12-18T12:17:58.103Z,-0.90
2022-12-18T12:18:57.285Z,-1.02
2022-12-18T12:19:57.965Z,-0.97
2022-12-18T12:20:58.282Z,-0.97
2022-12-18T12:21:58.084Z,-0.91
2022-12-18T12:22:57.945Z,-0.98
2022-12-18T12:23:57.984Z,-1.30
2022-12-18T12:24:57.802Z,-1.27
2022-12-18T12:25:59.084Z,-1.16
2022-12-18T12:26:58.601Z,-1.39
2022-12-18T12:27:58.410Z,-1.30
2022-12-18T12:28:58.242Z,-1.18
2022-12-18T12:29:58.044Z,-0.76
2022-12-18T12:30:57.904Z,-0.54
2022-12-18T12:31:58.190Z,-0.57
2022-12-18T12:32:57.802Z,-0.43
2022-12-18T12:33:57.982Z,-0.36
2022-12-18T12:35:00.929Z,-0.43
2022-12-18T12:35:57.882Z,-0.39
2022-12-18T12:36:58.082Z,-0.46
2022-12-18T12:37:58.023Z,-0.39
2022-12-18T12:38:57.943Z,-0.47
2022-12-18T12:39:57.644Z,-0.46
2022-12-18T12:41:02.828Z,-0.50
2022-12-18T12:41:57.663Z,-0.40
2022-12-18T12:42:58.143Z,-0.32
2022-12-18T12:43:58.304Z,-0.36
2022-12-18T12:44:57.963Z,-0.54
2022-12-18T12:45:57.703Z,-0.54
2022-12-18T12:46:57.764Z,-0.74
2022-12-18T12:47:57.885Z,-0.60
2022-12-18T12:48:57.782Z,-0.54
2022-12-18T12:49:58.000Z,-0.63
2022-12-18T12:50:58.228Z,-0.65
2022-12-18T12:51:57.782Z,-0.57
2022-12-18T12:52:57.867Z,-0.78
2022-12-18T12:53:57.743Z,-0.74
2022-12-18T12:54:57.503Z,-0.86
2022-12-18T12:55:58.782Z,-0.90
2022-12-18T12:56:57.923Z,-0.94
2022-12-18T12:57:57.784Z,-0.81
2022-12-18T12:58:57.764Z,-0.55